createdAt,value
2023-01-26T00:02:09.366Z,6.87
2023-01-26T00:04:37.385Z,6.40
2023-01-26T00:07:05.427Z,4.97
2023-01-26T00:09:33.497Z,6.80
2023-01-26T00:12:01.569Z,6.60
2023-01-26T00:14:50.164Z,10.53
2023-01-26T00:17:26.733Z,7.60
2023-01-26T00:19:56.293Z,5.87
2023-01-26T00:22:25.392Z,8.10
2023-01-26T00:24:53.609Z,7.83
2023-01-26T00:27:21.645Z,7.87
2023-01-26T00:29:49.635Z,7.93
2023-01-26T00:32:17.644Z,8.90
2023-01-26T00:34:47.652Z,9.77
2023-01-26T00:37:15.661Z,13.80
2023-01-26T00:39:44.827Z,14.33
2023-01-26T00:42:13.906Z,13.33
2023-01-26T00:44:44.381Z,12.77
2023-01-26T00:47:14.609Z,14.83
2023-01-26T00:49:42.687Z,14.10
2023-01-26T00:52:12.773Z,14.00
2023-01-26T00:54:41.123Z,13.17
2023-01-26T00:57:09.232Z,12.37
2023-01-26T00:59:37.363Z,14.07
2023-01-26T01:02:05.528Z,13.20
2023-01-26T01:04:33.623Z,13.73
2023-01-26T01:07:01.883Z,12.73
2023-01-26T01:09:31.338Z,12.80
2023-01-26T01:11:59.394Z,9.00
2023-01-26T01:14:28.703Z,8.03
2023-01-26T01:16:56.734Z,9.27
2023-01-26T01:19:24.806Z,9.70
2023-01-26T01:21:52.983Z,8.70
2023-01-26T01:24:21.144Z,8.70
2023-01-26T01:26:50.626Z,8.40
2023-01-26T01:29:18.884Z,9.73
2023-01-26T01:31:46.928Z,9.77
2023-01-26T01:34:14.958Z,10.17
2023-01-26T01:36:43.351Z,9.40
2023-01-26T01:39:11.386Z,8.70
2023-01-26T01:41:39.728Z,10.13
2023-01-26T01:44:18.510Z,9.07
2023-01-26T01:46:50.848Z,10.13
2023-01-26T01:49:21.701Z,8.80
2023-01-26T01:51:54.898Z,11.63
2023-01-26T01:54:31.349Z,9.37
2023-01-26T01:57:03.600Z,10.37
2023-01-26T01:59:34.381Z,12.67
2023-01-26T02:02:02.478Z,12.10
2023-01-26T02:04:30.814Z,11.03
2023-01-26T02:07:02.560Z,11.13
2023-01-26T02:09:51.771Z,11.73
2023-01-26T02:12:24.033Z,10.90
2023-01-26T02:14:54.421Z,11.17
2023-01-26T02:17:22.955Z,12.87
2023-01-26T02:19:59.382Z,10.83
2023-01-26T02:22:36.558Z,11.90
2023-01-26T02:25:11.624Z,10.47
2023-01-26T02:27:41.380Z,11.17
2023-01-26T02:30:12.210Z,13.17
2023-01-26T02:32:40.457Z,12.67
2023-01-26T02:35:09.371Z,12.43
2023-01-26T02:37:37.427Z,12.40
2023-01-26T02:40:14.099Z,11.97
2023-01-26T02:42:44.350Z,13.67
2023-01-26T02:45:15.546Z,12.67
2023-01-26T02:47:45.235Z,13.23
2023-01-26T02:50:13.326Z,14.00
2023-01-26T02:52:43.154Z,13.07
2023-01-26T02:55:25.166Z,12.37
2023-01-26T02:57:57.016Z,11.23
2023-01-26T03:00:27.859Z,12.37
2023-01-26T03:02:58.910Z,11.53
2023-01-26T03:05:27.993Z,12.90
2023-01-26T03:07:56.974Z,13.20
2023-01-26T03:10:30.968Z,12.80
2023-01-26T03:13:00.783Z,12.53
2023-01-26T03:15:52.262Z,13.97
2023-01-26T03:18:40.157Z,12.37
2023-01-26T03:21:29.933Z,12.97
2023-01-26T03:24:15.970Z,18.00
2023-01-26T03:27:02.832Z,19.03
2023-01-26T03:29:34.738Z,18.40
2023-01-26T03:32:03.800Z,19.23
2023-01-26T03:34:32.496Z,18.07
2023-01-26T03:37:01.189Z,18.87
2023-01-26T03:39:53.884Z,19.97
2023-01-26T03:42:39.832Z,19.40
2023-01-26T03:45:27.648Z,19.43
2023-01-26T03:48:23.397Z,18.73
2023-01-26T03:51:08.824Z,20.60
2023-01-26T03:53:54.709Z,19.27
2023-01-26T03:56:23.391Z,21.37
2023-01-26T03:58:55.340Z,21.20
2023-01-26T04:01:28.495Z,22.27
2023-01-26T04:04:17.874Z,15.27
2023-01-26T04:07:07.737Z,12.60
2023-01-26T04:09:39.458Z,14.93
2023-01-26T04:12:10.160Z,15.17
2023-01-26T04:15:02.664Z,14.27
2023-01-26T04:17:49.461Z,14.93
2023-01-26T04:20:35.019Z,13.93
2023-01-26T04:23:03.153Z,13.73
2023-01-26T04:25:31.237Z,15.33
2023-01-26T04:27:59.539Z,14.37
2023-01-26T04:30:27.646Z,15.53
2023-01-26T04:32:59.223Z,15.27
2023-01-26T04:35:27.341Z,15.03
2023-01-26T04:37:55.781Z,14.23
2023-01-26T04:40:24.445Z,14.27
2023-01-26T04:42:52.707Z,13.30
2023-01-26T04:45:20.943Z,16.93
2023-01-26T04:47:49.047Z,15.93
2023-01-26T04:50:19.605Z,15.70
2023-01-26T04:52:49.016Z,14.20
2023-01-26T04:55:17.784Z,15.60
2023-01-26T04:57:45.841Z,15.23
2023-01-26T05:00:14.678Z,14.20
2023-01-26T05:02:43.498Z,15.87
2023-01-26T05:05:12.095Z,12.37
2023-01-26T05:07:42.235Z,15.17
2023-01-26T05:10:14.536Z,14.60
2023-01-26T05:12:53.527Z,14.27
2023-01-26T05:15:40.225Z,13.53
2023-01-26T05:18:29.388Z,12.07
2023-01-26T05:21:18.745Z,12.33
2023-01-26T05:23:52.301Z,15.40
2023-01-26T05:26:39.619Z,15.40
2023-01-26T05:29:12.661Z,14.33
2023-01-26T05:31:41.512Z,14.00
2023-01-26T05:34:10.332Z,14.67
2023-01-26T05:36:38.817Z,14.37
2023-01-26T05:39:09.441Z,13.57
2023-01-26T05:41:37.746Z,14.47
2023-01-26T05:44:26.166Z,14.10
2023-01-26T05:47:02.937Z,13.03
2023-01-26T05:49:32.371Z,13.27
2023-01-26T05:52:01.437Z,13.27
2023-01-26T05:54:31.874Z,14.17
2023-01-26T05:57:01.357Z,12.60
2023-01-26T05:59:30.050Z,12.87
2023-01-26T06:01:58.980Z,11.57
2023-01-26T06:04:28.271Z,11.50
2023-01-26T06:07:01.124Z,12.93
2023-01-26T06:09:35.598Z,15.07
2023-01-26T06:12:16.370Z,14.73
2023-01-26T06:15:12.412Z,13.50
2023-01-26T06:17:44.921Z,12.63
2023-01-26T06:20:15.606Z,12.60
2023-01-26T06:22:51.779Z,10.47
2023-01-26T06:25:21.209Z,10.57
2023-01-26T06:27:49.614Z,11.40
2023-01-26T06:30:25.867Z,12.27
2023-01-26T06:32:57.600Z,10.90
2023-01-26T06:35:27.392Z,11.00
2023-01-26T06:37:57.812Z,10.60
2023-01-26T06:40:27.183Z,10.70
2023-01-26T06:42:56.198Z,11.33
2023-01-26T06:45:24.303Z,11.87
2023-01-26T06:47:53.203Z,12.90
2023-01-26T06:50:24.354Z,12.93
2023-01-26T06:52:55.826Z,9.77
2023-01-26T06:55:54.583Z,10.63
2023-01-26T06:58:29.579Z,11.13
2023-01-26T07:01:18.689Z,13.63
2023-01-26T07:03:48.515Z,12.77
2023-01-26T07:06:16.845Z,13.60
2023-01-26T07:08:44.890Z,14.77
2023-01-26T07:11:14.826Z,13.10
2023-01-26T07:13:43.078Z,13.53
2023-01-26T07:16:14.585Z,14.07
2023-01-26T07:18:42.635Z,15.00
2023-01-26T07:21:12.632Z,15.27
2023-01-26T07:23:40.968Z,14.43
2023-01-26T07:26:08.967Z,14.97
2023-01-26T07:28:40.203Z,13.10
2023-01-26T07:31:11.700Z,15.80
2023-01-26T07:33:39.943Z,13.83
2023-01-26T07:36:08.905Z,13.40
2023-01-26T07:38:36.913Z,15.83
2023-01-26T07:41:10.765Z,17.67
2023-01-26T07:43:41.907Z,20.77
2023-01-26T07:46:12.212Z,20.23
2023-01-26T07:48:41.669Z,16.53
2023-01-26T07:51:11.173Z,15.27
2023-01-26T07:53:41.120Z,14.87
2023-01-26T07:56:10.844Z,15.40
2023-01-26T07:58:40.402Z,16.50
2023-01-26T08:01:10.658Z,15.53
2023-01-26T08:03:39.013Z,15.70
2023-01-26T08:06:11.568Z,16.63
2023-01-26T08:08:40.983Z,16.90
2023-01-26T08:11:10.051Z,16.83
2023-01-26T08:13:38.513Z,15.57
2023-01-26T08:16:11.977Z,15.50
2023-01-26T08:18:40.438Z,16.40
2023-01-26T08:21:08.653Z,15.47
2023-01-26T08:23:36.693Z,17.03
2023-01-26T08:26:06.840Z,16.07
2023-01-26T08:28:35.801Z,18.07
2023-01-26T08:31:11.741Z,15.80
2023-01-26T08:33:40.937Z,15.63
2023-01-26T08:36:12.292Z,16.73
2023-01-26T08:38:40.529Z,13.80
2023-01-26T08:41:09.890Z,15.77
2023-01-26T08:43:38.211Z,16.43
2023-01-26T08:46:08.566Z,16.20
2023-01-26T08:48:37.343Z,18.03
2023-01-26T08:51:07.538Z,16.23
2023-01-26T08:53:37.624Z,14.07
2023-01-26T08:56:07.297Z,15.40
2023-01-26T08:58:35.425Z,14.30
2023-01-26T09:01:05.626Z,15.47
2023-01-26T09:03:35.536Z,13.83
2023-01-26T09:06:04.327Z,15.30
2023-01-26T09:08:32.958Z,14.57
2023-01-26T09:11:01.284Z,13.40
2023-01-26T09:13:29.382Z,15.57
2023-01-26T09:15:57.455Z,13.83
2023-01-26T09:18:25.579Z,13.77
2023-01-26T09:20:56.191Z,13.83
2023-01-26T09:23:24.395Z,13.77
2023-01-26T09:25:54.207Z,13.77
2023-01-26T09:28:22.237Z,13.43
2023-01-26T09:30:50.358Z,13.00
2023-01-26T09:33:18.411Z,13.10
2023-01-26T09:35:46.414Z,12.60
2023-01-26T09:38:15.938Z,13.17
2023-01-26T09:40:51.451Z,13.23
2023-01-26T09:43:31.861Z,12.07
2023-01-26T09:46:07.840Z,13.20
2023-01-26T09:48:43.155Z,12.67
2023-01-26T09:51:17.015Z,12.87
2023-01-26T09:53:53.799Z,13.70
2023-01-26T09:56:28.129Z,11.63
2023-01-26T09:59:01.940Z,11.83
2023-01-26T10:01:36.854Z,12.97
2023-01-26T10:04:12.150Z,13.30
2023-01-26T10:06:41.497Z,13.40
2023-01-26T10:09:17.946Z,12.07
2023-01-26T10:11:48.516Z,12.40
2023-01-26T10:14:24.360Z,14.27
2023-01-26T10:16:54.714Z,13.17
2023-01-26T10:19:33.727Z,13.00
2023-01-26T10:22:06.919Z,12.63
2023-01-26T10:24:36.219Z,13.33
2023-01-26T10:27:11.393Z,12.63
2023-01-26T10:29:39.408Z,13.47
2023-01-26T10:32:11.433Z,13.88
2023-01-26T10:34:42.345Z,11.43
2023-01-26T10:37:21.722Z,12.75
2023-01-26T10:40:02.443Z,11.97
2023-01-26T10:42:32.498Z,13.43
2023-01-26T10:45:03.294Z,16.30
2023-01-26T10:47:31.575Z,12.18
2023-01-26T10:50:20.828Z,14.48
2023-01-26T10:53:06.934Z,13.75
2023-01-26T10:55:37.286Z,15.93
2023-01-26T10:58:05.757Z,13.13
2023-01-26T11:00:37.009Z,14.10
2023-01-26T11:03:17.546Z,14.70
2023-01-26T11:05:47.998Z,15.50
2023-01-26T11:08:33.529Z,15.18
2023-01-26T11:11:04.441Z,14.20
2023-01-26T11:13:32.651Z,14.10
2023-01-26T11:16:10.057Z,14.18
2023-01-26T11:18:47.874Z,13.93
2023-01-26T11:21:21.145Z,12.37
2023-01-26T11:23:58.512Z,13.13
2023-01-26T11:26:46.433Z,14.27
2023-01-26T11:29:36.615Z,12.95
2023-01-26T11:32:13.556Z,13.77
2023-01-26T11:34:51.046Z,11.90
2023-01-26T11:37:53.878Z,12.30
2023-01-26T11:40:35.215Z,12.38
2023-01-26T11:43:20.160Z,13.57
2023-01-26T11:46:02.431Z,12.57
2023-01-26T11:48:39.904Z,13.70
2023-01-26T11:51:16.697Z,14.07
2023-01-26T11:54:16.064Z,12.35
2023-01-26T11:56:50.925Z,12.25
2023-01-26T11:59:26.209Z,12.70
2023-01-26T12:02:00.731Z,12.85
2023-01-26T12:04:31.868Z,15.60
2023-01-26T12:07:04.538Z,14.57
2023-01-26T12:09:39.678Z,15.00
2023-01-26T12:12:14.074Z,13.32
2023-01-26T12:14:47.629Z,14.20
2023-01-26T12:17:32.428Z,18.33
2023-01-26T12:20:07.159Z,20.70
2023-01-26T12:22:38.122Z,18.85
2023-01-26T12:25:20.768Z,15.87
2023-01-26T12:27:56.433Z,14.17
2023-01-26T12:30:35.420Z,14.47
2023-01-26T12:33:03.678Z,12.98
2023-01-26T12:35:52.066Z,12.63
2023-01-26T12:38:24.229Z,14.15
2023-01-26T12:41:07.051Z,12.57
2023-01-26T12:43:46.349Z,13.40
2023-01-26T12:46:18.324Z,14.32
2023-01-26T12:48:50.791Z,14.55
2023-01-26T12:51:24.954Z,14.45
2023-01-26T12:54:22.257Z,12.18
2023-01-26T12:56:54.091Z,12.43
2023-01-26T12:59:47.200Z,14.20
2023-01-26T13:02:31.430Z,14.65
2023-01-26T13:05:00.891Z,15.57
2023-01-26T13:07:34.514Z,13.27
2023-01-26T13:10:25.316Z,13.93
2023-01-26T13:12:55.945Z,16.80
2023-01-26T13:15:25.932Z,15.85
2023-01-26T13:17:57.734Z,17.30
2023-01-26T13:20:44.338Z,16.45
2023-01-26T13:23:45.130Z,18.48
2023-01-26T13:26:32.680Z,30.05
2023-01-26T13:29:28.190Z,35.10
2023-01-26T13:31:57.716Z,23.20
2023-01-26T13:34:30.144Z,18.88
2023-01-26T13:37:06.595Z,19.08
2023-01-26T13:39:37.935Z,16.92
2023-01-26T13:42:20.088Z,17.15
2023-01-26T13:44:57.080Z,20.47
2023-01-26T13:47:32.174Z,18.27
2023-01-26T13:50:01.548Z,16.08
2023-01-26T13:52:29.685Z,16.85
2023-01-26T13:54:58.368Z,18.95
2023-01-26T13:57:28.562Z,19.23
2023-01-26T14:00:00.623Z,20.70
2023-01-26T14:02:31.568Z,22.23
2023-01-26T14:05:02.092Z,19.50
2023-01-26T14:07:33.634Z,18.67
2023-01-26T14:10:03.373Z,16.60
2023-01-26T14:12:35.730Z,18.07
2023-01-26T14:15:07.876Z,18.07
2023-01-26T14:17:38.223Z,17.00
2023-01-26T14:20:20.215Z,19.50
2023-01-26T14:23:03.749Z,16.63
2023-01-26T14:25:31.918Z,21.73
2023-01-26T14:27:59.959Z,24.60
2023-01-26T14:30:30.455Z,16.73
2023-01-26T14:33:04.800Z,16.85
2023-01-26T14:35:34.610Z,18.27
2023-01-26T14:38:07.332Z,18.98
2023-01-26T14:40:35.506Z,18.05
2023-01-26T14:43:04.785Z,16.55
2023-01-26T14:45:33.580Z,19.95
2023-01-26T14:48:06.180Z,19.50
2023-01-26T14:50:37.940Z,18.40
2023-01-26T14:53:06.860Z,18.23
2023-01-26T14:55:37.092Z,18.23
2023-01-26T14:58:15.906Z,18.87
2023-01-26T15:00:49.006Z,12.98
2023-01-26T15:03:24.585Z,14.10
2023-01-26T15:06:17.013Z,14.13
2023-01-26T15:08:55.807Z,14.48
2023-01-26T15:11:55.860Z,13.65
2023-01-26T15:14:52.045Z,15.02
2023-01-26T15:17:31.490Z,13.48
2023-01-26T15:19:59.588Z,12.90
2023-01-26T15:22:29.057Z,14.10
2023-01-26T15:25:02.637Z,14.55
2023-01-26T15:27:35.847Z,12.87
2023-01-26T15:30:06.987Z,11.98
2023-01-26T15:32:40.835Z,13.20
2023-01-26T15:35:20.088Z,15.25
2023-01-26T15:37:50.145Z,15.23
2023-01-26T15:40:18.520Z,14.40
2023-01-26T15:42:46.529Z,13.47
2023-01-26T15:45:25.893Z,13.73
2023-01-26T15:47:54.812Z,12.90
2023-01-26T15:50:28.239Z,13.70
2023-01-26T15:52:57.843Z,12.65
2023-01-26T15:55:29.099Z,13.20
2023-01-26T15:57:57.399Z,15.23
2023-01-26T16:00:25.860Z,14.00
2023-01-26T16:02:53.887Z,12.67
2023-01-26T16:05:24.010Z,11.53
2023-01-26T16:07:52.618Z,11.10
2023-01-26T16:10:22.104Z,13.60
2023-01-26T16:12:51.193Z,12.95
2023-01-26T16:15:31.950Z,12.27
2023-01-26T16:17:59.985Z,10.30
2023-01-26T16:20:27.967Z,11.10
2023-01-26T16:22:55.989Z,10.57
2023-01-26T16:25:28.105Z,11.53
2023-01-26T16:27:57.517Z,11.40
2023-01-26T16:30:26.604Z,11.57
2023-01-26T16:32:54.649Z,11.53
2023-01-26T16:35:24.074Z,11.47
2023-01-26T16:37:52.209Z,11.40
2023-01-26T16:40:20.543Z,10.32
2023-01-26T16:42:52.574Z,9.65
2023-01-26T16:45:22.008Z,10.93
2023-01-26T16:47:52.188Z,11.05
2023-01-26T16:50:20.769Z,10.47
2023-01-26T16:52:48.991Z,10.10
2023-01-26T16:55:17.796Z,8.98
2023-01-26T16:57:49.349Z,9.20
2023-01-26T17:00:20.790Z,9.63
2023-01-26T17:02:52.272Z,8.23
2023-01-26T17:05:22.774Z,6.70
2023-01-26T17:07:51.548Z,9.13
2023-01-26T17:10:22.315Z,7.73
2023-01-26T17:12:50.547Z,11.57
2023-01-26T17:15:20.822Z,9.07
2023-01-26T17:17:49.937Z,8.97
2023-01-26T17:20:19.833Z,7.80
2023-01-26T17:22:49.152Z,9.57
2023-01-26T17:25:18.807Z,9.27
2023-01-26T17:27:49.977Z,7.33
2023-01-26T17:30:20.077Z,6.13
2023-01-26T17:32:48.190Z,5.60
2023-01-26T17:35:16.386Z,5.43
2023-01-26T17:37:44.398Z,9.05
2023-01-26T17:40:13.366Z,7.93
2023-01-26T17:42:41.903Z,6.28
2023-01-26T17:45:11.103Z,6.40
2023-01-26T17:47:40.739Z,7.15
2023-01-26T17:50:10.175Z,6.90
2023-01-26T17:52:38.590Z,16.05
2023-01-26T17:55:09.687Z,10.90
2023-01-26T17:57:37.955Z,9.57
2023-01-26T18:00:07.498Z,7.03
2023-01-26T18:02:38.612Z,6.57
2023-01-26T18:05:10.065Z,7.60
2023-01-26T18:07:38.440Z,6.63
2023-01-26T18:10:07.563Z,7.60
2023-01-26T18:12:37.597Z,6.03
2023-01-26T18:15:06.583Z,8.10
2023-01-26T18:17:36.957Z,7.03
2023-01-26T18:20:05.544Z,6.57
2023-01-26T18:22:34.900Z,7.13
2023-01-26T18:25:03.287Z,6.68
2023-01-26T18:27:31.292Z,7.10
2023-01-26T18:29:59.290Z,6.13
2023-01-26T18:32:27.382Z,6.13
2023-01-26T18:34:55.432Z,5.80
2023-01-26T18:37:23.457Z,5.83
2023-01-26T18:39:52.824Z,6.77
2023-01-26T18:42:20.859Z,5.18
2023-01-26T18:44:48.889Z,5.72
2023-01-26T18:47:17.398Z,5.20
2023-01-26T18:49:45.451Z,5.20
2023-01-26T18:52:13.494Z,5.40
2023-01-26T18:54:42.565Z,4.72
2023-01-26T18:57:12.122Z,5.22
2023-01-26T18:59:40.212Z,6.25
2023-01-26T19:02:08.324Z,6.72
2023-01-26T19:04:36.924Z,7.68
2023-01-26T19:07:04.972Z,7.80
2023-01-26T19:09:34.802Z,7.82
2023-01-26T19:12:03.006Z,7.78
2023-01-26T19:14:33.165Z,8.85
2023-01-26T19:17:01.502Z,6.53
2023-01-26T19:19:31.699Z,6.68
2023-01-26T19:21:59.673Z,6.57
2023-01-26T19:24:27.711Z,6.57
2023-01-26T19:26:55.775Z,8.73
2023-01-26T19:29:23.839Z,8.03
2023-01-26T19:31:53.281Z,8.48
2023-01-26T19:34:21.660Z,7.35
2023-01-26T19:36:49.656Z,8.50
2023-01-26T19:39:17.677Z,7.47
2023-01-26T19:41:46.324Z,10.30
2023-01-26T19:44:14.386Z,7.63
2023-01-26T19:46:42.380Z,8.10
2023-01-26T19:49:13.460Z,7.23
2023-01-26T19:51:41.917Z,7.93
2023-01-26T19:54:09.966Z,6.93
2023-01-26T19:56:38.293Z,8.67
2023-01-26T19:59:10.010Z,7.07
2023-01-26T20:01:38.249Z,7.57
2023-01-26T20:04:09.068Z,6.97
2023-01-26T20:06:38.906Z,6.75
2023-01-26T20:09:08.996Z,7.22
2023-01-26T20:11:37.252Z,6.78
2023-01-26T20:14:08.379Z,7.43
2023-01-26T20:16:37.054Z,8.73
2023-01-26T20:19:05.482Z,7.70
2023-01-26T20:21:35.402Z,5.13
2023-01-26T20:24:06.401Z,11.67
2023-01-26T20:26:35.903Z,9.15
2023-01-26T20:29:04.317Z,13.07
2023-01-26T20:31:33.110Z,13.07
2023-01-26T20:34:02.077Z,17.07
2023-01-26T20:36:30.269Z,16.27
2023-01-26T20:38:58.697Z,12.93
2023-01-26T20:41:30.357Z,13.33
2023-01-26T20:44:02.641Z,14.75
2023-01-26T20:46:33.484Z,16.85
2023-01-26T20:49:02.314Z,15.32
2023-01-26T20:51:33.807Z,16.30
2023-01-26T20:54:02.500Z,21.10
2023-01-26T20:56:32.453Z,20.02
2023-01-26T20:59:00.616Z,22.07
2023-01-26T21:01:28.908Z,19.57
2023-01-26T21:03:57.035Z,19.48
2023-01-26T21:06:26.114Z,14.73
2023-01-26T21:08:55.869Z,14.15
2023-01-26T21:11:25.579Z,14.82
2023-01-26T21:13:56.329Z,13.57
2023-01-26T21:16:25.310Z,13.60
2023-01-26T21:18:53.467Z,15.40
2023-01-26T21:21:22.531Z,17.17
2023-01-26T21:23:51.442Z,15.82
2023-01-26T21:26:22.351Z,12.52
2023-01-26T21:28:51.782Z,9.48
2023-01-26T21:31:22.699Z,9.10
2023-01-26T21:33:51.375Z,10.07
2023-01-26T21:36:21.153Z,9.00
2023-01-26T21:38:51.713Z,8.93
2023-01-26T21:41:39.071Z,8.68
2023-01-26T21:44:10.754Z,11.07
2023-01-26T21:46:40.774Z,10.30
2023-01-26T21:49:09.284Z,8.82
2023-01-26T21:51:55.242Z,6.47
2023-01-26T21:54:45.100Z,6.10
2023-01-26T21:57:31.174Z,7.38
2023-01-26T21:59:59.668Z,7.95
2023-01-26T22:02:29.114Z,7.85
2023-01-26T22:04:57.140Z,7.10
2023-01-26T22:07:27.953Z,8.30
2023-01-26T22:09:56.504Z,8.38
2023-01-26T22:12:24.596Z,11.07
2023-01-26T22:14:52.784Z,6.80
2023-01-26T22:17:20.847Z,7.10
2023-01-26T22:19:50.247Z,7.63
2023-01-26T22:22:18.245Z,8.25
2023-01-26T22:24:46.263Z,8.32
2023-01-26T22:27:14.285Z,8.25
2023-01-26T22:29:42.754Z,6.93
2023-01-26T22:32:10.826Z,7.22
2023-01-26T22:34:38.835Z,7.40
2023-01-26T22:37:08.176Z,7.70
2023-01-26T22:39:36.223Z,8.77
2023-01-26T22:42:04.313Z,8.25
2023-01-26T22:44:32.356Z,9.05
2023-01-26T22:47:00.338Z,9.23
2023-01-26T22:49:28.667Z,8.98
2023-01-26T22:51:56.849Z,7.47
2023-01-26T22:54:27.422Z,8.38
2023-01-26T22:56:55.406Z,8.23
2023-01-26T22:59:23.427Z,9.25
2023-01-26T23:01:51.448Z,8.82
2023-01-26T23:04:19.982Z,9.55
2023-01-26T23:06:47.971Z,7.38
2023-01-26T23:09:15.959Z,8.50
2023-01-26T23:11:45.658Z,8.57
2023-01-26T23:14:13.674Z,9.05
2023-01-26T23:16:42.091Z,8.65
2023-01-26T23:19:10.080Z,9.45
2023-01-26T23:21:38.478Z,7.95
2023-01-26T23:24:07.197Z,8.25
2023-01-26T23:26:35.294Z,6.55
2023-01-26T23:29:05.246Z,6.57
2023-01-26T23:31:33.387Z,5.78
2023-01-26T23:34:01.598Z,6.72
2023-01-26T23:36:30.398Z,5.47
2023-01-26T23:38:58.404Z,5.93
2023-01-26T23:41:26.871Z,5.70
2023-01-26T23:43:54.894Z,6.53
2023-01-26T23:46:24.674Z,7.93
2023-01-26T23:48:52.712Z,7.90
2023-01-26T23:51:20.745Z,7.80
2023-01-26T23:54:11.344Z,6.40
2023-01-26T23:56:39.367Z,7.03
2023-01-26T23:59:07.407Z,6.40
